createdAt,value
2022-08-12T00:00:08.526Z,95120.94
2022-08-12T00:02:55.061Z,95125.31
2022-08-12T00:06:03.946Z,95129.19
2022-08-12T00:13:13.090Z,95136.13
2022-08-12T00:16:02.147Z,95142.94
2022-08-12T00:18:48.345Z,95137.28
2022-08-12T00:22:24.380Z,95132.63
2022-08-12T00:25:21.713Z,95135.00
2022-08-12T00:28:27.616Z,95128.16
2022-08-12T00:31:13.084Z,95124.34
2022-08-12T00:33:58.784Z,95120.13
2022-08-12T00:36:48.845Z,95125.84
2022-08-12T00:39:36.374Z,95125.69
2022-08-12T00:42:13.560Z,95115.69
2022-08-12T00:44:45.545Z,95116.81
2022-08-12T00:47:24.421Z,95117.66
2022-08-12T00:49:55.569Z,95102.41
2022-08-12T00:52:23.308Z,95123.66
2022-08-12T00:54:54.128Z,95113.28
2022-08-12T00:57:24.211Z,95124.34
2022-08-12T00:59:53.166Z,95122.06
2022-08-12T01:02:33.387Z,95119.16
2022-08-12T01:05:40.481Z,95118.66
2022-08-12T01:08:26.239Z,95117.88
2022-08-12T01:11:14.034Z,95117.88
2022-08-12T01:13:47.273Z,95128.81
2022-08-12T01:16:17.373Z,95130.75
2022-08-12T01:18:44.823Z,95133.75
2022-08-12T01:21:33.511Z,95139.56
2022-08-12T01:24:34.218Z,95132.91
2022-08-12T01:27:07.848Z,95136.38
2022-08-12T01:29:41.793Z,95140.53
2022-08-12T01:32:12.534Z,95133.91
2022-08-12T01:34:45.300Z,95144.22
2022-08-12T01:37:13.541Z,95132.63
2022-08-12T01:40:34.587Z,95130.22
2022-08-12T01:42:43.381Z,95129.94
2022-08-12T01:45:12.467Z,95125.13
2022-08-12T01:48:16.989Z,95124.53
2022-08-12T01:52:14.680Z,95128.25
2022-08-12T01:54:19.157Z,95127.09
2022-08-12T01:57:07.030Z,95132.75
2022-08-12T01:59:59.416Z,95109.78
2022-08-12T02:02:27.344Z,95127.56
2022-08-12T02:05:26.397Z,95124.69
2022-08-12T02:08:29.005Z,95127.16
2022-08-12T02:11:16.400Z,95119.63
2022-08-12T02:14:06.568Z,95128.50
2022-08-12T02:16:42.080Z,95121.41
2022-08-12T02:19:37.217Z,95121.56
2022-08-12T02:22:36.720Z,95124.41
2022-08-12T02:25:17.037Z,95125.31
2022-08-12T02:27:47.257Z,95126.44
2022-08-12T02:30:20.465Z,95124.59
2022-08-12T02:32:49.570Z,95127.00
2022-08-12T02:35:19.703Z,95125.75
2022-08-12T02:37:48.796Z,95116.91
2022-08-12T02:40:18.050Z,95120.09
2022-08-12T02:43:12.253Z,95123.31
2022-08-12T02:45:56.786Z,95126.34
2022-08-12T02:48:30.215Z,95120.53
2022-08-12T02:51:06.797Z,95121.91
2022-08-12T02:53:36.165Z,95114.13
2022-08-12T02:56:05.229Z,95128.09
2022-08-12T02:58:34.000Z,95128.31
2022-08-12T03:01:10.280Z,95122.28
2022-08-12T03:03:39.459Z,95124.22
2022-08-12T03:06:27.319Z,95121.47
2022-08-12T03:08:57.459Z,95127.41
2022-08-12T03:11:49.021Z,95121.69
2022-08-12T03:14:18.117Z,95125.75
2022-08-12T03:16:50.347Z,95128.53
2022-08-12T03:19:24.808Z,95128.97
2022-08-12T03:22:09.309Z,95122.66
2022-08-12T03:24:42.080Z,95131.66
2022-08-12T03:27:11.284Z,95130.63
2022-08-12T03:29:47.469Z,95131.19
2022-08-12T03:32:35.485Z,95125.56
2022-08-12T03:35:07.830Z,95136.81
2022-08-12T03:37:37.307Z,95142.00
2022-08-12T03:40:05.042Z,95142.44
2022-08-12T03:42:51.850Z,95133.59
2022-08-12T03:45:51.535Z,95137.81
2022-08-12T03:48:38.792Z,95123.19
2022-08-12T03:51:26.444Z,95133.00
2022-08-12T03:54:12.971Z,95139.66
2022-08-12T03:56:58.893Z,95143.75
2022-08-12T03:59:44.789Z,95157.66
2022-08-12T04:02:16.253Z,95157.75
2022-08-12T04:04:45.618Z,95149.03
2022-08-12T04:07:16.509Z,95154.38
2022-08-12T04:09:45.528Z,95152.22
2022-08-12T04:12:32.718Z,95157.09
2022-08-12T04:15:01.393Z,95160.03
2022-08-12T04:17:28.594Z,95153.59
2022-08-12T04:19:59.386Z,95160.22
2022-08-12T04:22:30.499Z,95145.66
2022-08-12T04:25:02.157Z,95144.72
2022-08-12T04:27:31.692Z,95153.53
2022-08-12T04:30:30.213Z,95156.28
2022-08-12T04:32:50.172Z,95150.41
2022-08-12T04:35:17.907Z,95162.66
2022-08-12T04:37:59.131Z,95166.44
2022-08-12T04:40:30.793Z,95162.91
2022-08-12T04:43:01.024Z,95141.59
2022-08-12T04:45:29.059Z,95156.53
2022-08-12T04:47:56.712Z,95158.34
2022-08-12T04:50:26.863Z,95153.56
2022-08-12T04:53:02.938Z,95141.72
2022-08-12T04:55:30.025Z,95147.03
2022-08-12T04:57:56.896Z,95147.38
2022-08-12T05:00:23.911Z,95150.25
2022-08-12T05:02:51.125Z,95154.03
2022-08-12T05:05:23.034Z,95145.81
2022-08-12T05:07:54.218Z,95145.78
2022-08-12T05:10:33.915Z,95153.03
2022-08-12T05:13:08.384Z,95150.53
2022-08-12T05:16:04.803Z,95145.00
2022-08-12T05:18:39.164Z,95156.44
2022-08-12T05:21:08.072Z,95157.84
2022-08-12T05:23:37.359Z,95153.84
2022-08-12T05:26:04.969Z,95148.47
2022-08-12T05:28:32.170Z,95154.63
2022-08-12T05:31:03.432Z,95163.22
2022-08-12T05:33:37.639Z,95164.75
2022-08-12T05:36:12.719Z,95163.78
2022-08-12T05:38:58.531Z,95162.16
2022-08-12T05:41:36.109Z,95166.34
2022-08-12T05:44:06.497Z,95165.38
2022-08-12T05:46:36.721Z,95167.00
2022-08-12T05:49:04.775Z,95161.34
2022-08-12T05:51:40.925Z,95162.88
2022-08-12T05:54:10.490Z,95181.69
2022-08-12T05:56:37.494Z,95164.13
2022-08-12T05:59:11.158Z,95170.31
2022-08-12T06:02:09.752Z,95164.91
2022-08-12T06:04:26.182Z,95161.13
2022-08-12T06:06:53.627Z,95163.41
2022-08-12T06:09:22.555Z,95163.25
2022-08-12T06:12:05.841Z,95154.38
2022-08-12T06:14:36.942Z,95172.16
2022-08-12T06:17:05.461Z,95162.81
2022-08-12T06:20:27.810Z,95166.88
2022-08-12T06:22:19.636Z,95170.94
2022-08-12T06:24:48.399Z,95152.41
2022-08-12T06:27:17.757Z,95163.22
2022-08-12T06:30:09.343Z,95164.06
2022-08-12T06:32:31.631Z,95156.44
2022-08-12T06:35:23.839Z,95160.88
2022-08-12T06:37:57.094Z,95166.00
2022-08-12T06:41:04.094Z,95163.38
2022-08-12T06:44:06.140Z,95162.06
2022-08-12T06:46:19.475Z,95170.50
2022-08-12T06:48:46.315Z,95161.84
2022-08-12T06:51:13.411Z,95170.94
2022-08-12T06:53:46.964Z,95164.25
2022-08-12T06:56:17.475Z,95166.03
2022-08-12T06:58:44.549Z,95166.88
2022-08-12T07:01:11.705Z,95159.59
2022-08-12T07:03:38.577Z,95166.25
2022-08-12T07:06:11.678Z,95144.41
2022-08-12T07:08:39.858Z,95153.41
2022-08-12T07:11:09.357Z,95154.13
2022-08-12T07:14:02.386Z,95163.50
2022-08-12T07:16:50.554Z,95150.72
2022-08-12T07:19:17.994Z,95168.28
2022-08-12T07:21:59.899Z,95167.97
2022-08-12T07:24:30.269Z,95158.09
2022-08-12T07:26:57.092Z,95165.69
2022-08-12T07:29:26.108Z,95158.53
2022-08-12T07:32:12.985Z,95156.47
2022-08-12T07:34:43.368Z,95145.63
2022-08-12T07:37:10.328Z,95162.81
2022-08-12T07:39:37.141Z,95156.22
2022-08-12T07:42:17.476Z,95154.31
2022-08-12T07:44:44.453Z,95148.50
2022-08-12T07:47:12.624Z,95151.63
2022-08-12T07:50:03.332Z,95140.53
2022-08-12T07:52:26.609Z,95143.38
2022-08-12T07:54:53.947Z,95130.78
2022-08-12T07:57:21.403Z,95132.63
2022-08-12T07:59:48.282Z,95146.31
2022-08-12T08:02:22.351Z,95137.00
2022-08-12T08:04:57.477Z,95143.03
2022-08-12T08:07:30.934Z,95136.38
2022-08-12T08:10:00.322Z,95139.75
2022-08-12T08:12:47.497Z,95141.59
2022-08-12T08:15:15.797Z,95137.44
2022-08-12T08:17:59.707Z,95131.97
2022-08-12T08:20:30.736Z,95132.28
2022-08-12T08:22:59.002Z,95114.75
2022-08-12T08:25:36.457Z,95117.31
2022-08-12T08:28:08.298Z,95119.09
2022-08-12T08:30:38.379Z,95112.22
2022-08-12T08:33:23.515Z,95110.88
2022-08-12T08:35:56.171Z,95092.81
2022-08-12T08:38:32.157Z,95117.78
2022-08-12T08:42:17.008Z,95107.31
2022-08-12T08:44:08.021Z,95097.53
2022-08-12T08:46:38.057Z,95102.53
2022-08-12T08:49:06.205Z,95086.50
2022-08-12T08:51:33.770Z,95066.41
2022-08-12T08:54:00.580Z,95087.69
2022-08-12T08:56:29.581Z,95090.00
2022-08-12T08:58:57.759Z,95086.16
2022-08-12T09:01:25.362Z,95091.53
2022-08-12T09:05:08.343Z,95081.34
2022-08-12T09:06:53.787Z,95092.50
2022-08-12T09:09:21.418Z,95081.34
2022-08-12T09:12:11.934Z,95085.25
2022-08-12T09:14:46.967Z,95080.03
2022-08-12T09:17:22.271Z,95086.94
2022-08-12T09:19:56.901Z,95074.16
2022-08-12T09:22:28.530Z,95080.09
2022-08-12T09:24:59.836Z,95072.50
2022-08-12T09:30:16.062Z,95084.22
2022-08-12T09:33:04.714Z,95077.91
2022-08-12T09:35:42.842Z,95079.53
2022-08-12T09:38:28.582Z,95067.03
2022-08-12T09:42:07.186Z,95066.28
2022-08-12T09:44:04.981Z,95062.63
2022-08-12T09:46:34.479Z,95067.53
2022-08-12T09:49:04.076Z,95068.69
2022-08-12T09:51:43.349Z,95060.09
2022-08-12T09:54:32.812Z,95060.66
2022-08-12T09:58:50.355Z,95055.94
2022-08-12T10:00:12.845Z,95047.53
2022-08-12T10:03:31.249Z,95051.69
2022-08-12T10:06:28.052Z,95057.75
2022-08-12T10:08:52.257Z,95041.63
2022-08-12T10:12:10.416Z,95050.09
2022-08-12T10:14:34.428Z,95047.53
2022-08-12T10:17:02.257Z,95041.97
2022-08-12T10:19:36.699Z,95034.66
2022-08-12T10:22:06.181Z,95032.44
2022-08-12T10:25:17.185Z,95025.84
2022-08-12T10:28:08.368Z,95023.16
2022-08-12T10:30:46.836Z,95023.16
2022-08-12T10:33:31.741Z,95006.16
2022-08-12T10:36:00.406Z,95015.69
2022-08-12T10:38:34.770Z,95013.13
2022-08-12T10:41:57.442Z,95006.47
2022-08-12T10:44:17.257Z,95013.06
2022-08-12T10:46:49.204Z,95010.38
2022-08-12T10:50:07.083Z,95012.72
2022-08-12T10:52:34.836Z,95014.91
2022-08-12T10:54:59.938Z,95013.09
2022-08-12T10:58:13.350Z,95009.88
2022-08-12T11:00:33.993Z,95001.47
2022-08-12T11:04:25.808Z,94992.19
2022-08-12T11:07:08.560Z,94999.94
2022-08-12T11:08:43.203Z,94998.00
2022-08-12T11:11:17.921Z,95000.72
2022-08-12T11:14:05.830Z,94981.34
2022-08-12T11:16:33.910Z,94993.34
2022-08-12T11:19:05.386Z,94995.94
2022-08-12T11:21:56.437Z,95000.97
2022-08-12T11:24:32.048Z,94989.81
2022-08-12T11:27:02.189Z,94989.31
2022-08-12T11:30:01.708Z,94986.00
2022-08-12T11:32:23.414Z,94982.50
2022-08-12T11:34:54.785Z,94976.50
2022-08-12T11:37:25.626Z,94969.66
2022-08-12T11:40:10.355Z,94983.59
2022-08-12T11:42:46.200Z,94987.03
2022-08-12T11:45:16.907Z,94968.81
2022-08-12T11:47:44.397Z,94981.41
2022-08-12T11:50:19.678Z,94982.78
2022-08-12T11:52:56.740Z,94975.16
2022-08-12T11:55:29.355Z,94977.41
2022-08-12T11:58:09.500Z,94967.34
2022-08-12T12:03:45.776Z,94971.97
2022-08-12T12:06:17.866Z,94978.63
2022-08-12T12:08:51.099Z,94979.34
2022-08-12T12:11:19.677Z,94969.66
2022-08-12T12:14:08.891Z,94982.69
2022-08-12T12:16:38.075Z,94976.25
2022-08-12T12:19:10.138Z,94971.69
2022-08-12T12:21:46.913Z,94966.13
2022-08-12T12:24:22.065Z,94967.53
2022-08-12T12:27:00.441Z,94963.47
2022-08-12T12:30:17.649Z,94966.44
2022-08-12T12:32:17.099Z,94959.50
2022-08-12T12:35:14.003Z,94966.59
2022-08-12T12:38:05.116Z,94965.88
2022-08-12T12:40:20.217Z,94948.81
2022-08-12T12:42:56.021Z,94956.53
2022-08-12T12:45:28.058Z,94960.38
2022-08-12T12:48:19.144Z,94946.13
2022-08-12T12:51:12.175Z,94930.66
2022-08-12T12:54:08.368Z,94941.84
2022-08-12T12:56:34.003Z,94938.00
2022-08-12T12:59:03.759Z,94931.75
2022-08-12T13:01:38.194Z,94934.13
2022-08-12T13:04:08.238Z,94927.00
2022-08-12T13:06:41.272Z,94915.91
2022-08-12T13:09:12.877Z,94938.69
2022-08-12T13:11:42.073Z,94931.69
2022-08-12T13:14:28.970Z,94918.91
2022-08-12T13:17:03.667Z,94914.97
2022-08-12T13:19:45.188Z,94919.47
2022-08-12T13:22:21.253Z,94922.50
2022-08-12T13:24:56.029Z,94920.09
2022-08-12T13:27:34.647Z,94920.00
2022-08-12T13:30:11.063Z,94930.78
2022-08-12T13:32:46.891Z,94939.47
2022-08-12T13:36:03.345Z,94933.91
2022-08-12T13:38:26.724Z,94940.44
2022-08-12T13:41:03.770Z,94929.31
2022-08-12T13:43:40.854Z,94929.47
2022-08-12T13:46:11.911Z,94916.06
2022-08-12T13:48:45.347Z,94942.44
2022-08-12T13:51:14.138Z,94939.53
2022-08-12T13:53:57.851Z,94933.50
2022-08-12T13:56:34.518Z,94931.56
2022-08-12T13:59:07.808Z,94934.81
2022-08-12T14:01:40.135Z,94928.34
2022-08-12T14:04:11.903Z,94937.50
2022-08-12T14:06:40.675Z,94928.09
2022-08-12T14:09:15.648Z,94931.03
2022-08-12T14:11:58.478Z,94936.97
2022-08-12T14:14:27.124Z,94933.75
2022-08-12T14:16:54.058Z,94945.47
2022-08-12T14:19:24.414Z,94932.59
2022-08-12T14:22:01.124Z,94943.31
2022-08-12T14:24:35.381Z,94938.53
2022-08-12T14:27:03.806Z,94925.03
2022-08-12T14:29:55.796Z,94926.75
2022-08-12T14:32:25.227Z,94928.06
2022-08-12T14:34:53.123Z,94920.97
2022-08-12T14:37:57.863Z,94930.19
2022-08-12T14:40:18.374Z,94928.16
2022-08-12T14:42:47.026Z,94922.22
2022-08-12T14:45:14.368Z,94921.59
2022-08-12T14:47:50.036Z,94897.84
2022-08-12T14:50:58.743Z,94928.66
2022-08-12T14:59:20.397Z,94910.16
2022-08-12T15:01:52.133Z,94914.31
2022-08-12T15:04:28.531Z,94910.44
2022-08-12T15:06:56.344Z,94915.22
2022-08-12T15:09:28.642Z,94908.66
2022-08-12T15:12:03.729Z,94907.56
2022-08-12T15:14:31.967Z,94899.22
2022-08-12T15:17:01.752Z,94908.91
2022-08-12T15:20:31.634Z,94903.09
2022-08-12T15:22:39.316Z,94878.25
2022-08-12T15:25:07.464Z,94879.41
2022-08-12T15:28:04.373Z,94880.03
2022-08-12T15:30:31.421Z,94874.16
2022-08-12T15:32:59.053Z,94879.72
2022-08-12T15:35:38.350Z,94874.25
2022-08-12T15:38:20.241Z,94867.97
2022-08-12T15:40:51.285Z,94861.44
2022-08-12T15:43:51.043Z,94864.44
2022-08-12T15:46:06.943Z,94871.31
2022-08-12T15:48:35.200Z,94847.34
2022-08-12T15:51:03.168Z,94872.19
2022-08-12T15:53:53.250Z,94879.63
2022-08-12T15:56:29.673Z,94887.06
2022-08-12T15:58:59.026Z,94876.94
2022-08-12T16:01:35.359Z,94876.91
2022-08-12T16:04:05.151Z,94876.59
2022-08-12T16:09:56.449Z,94884.69
2022-08-12T16:12:12.175Z,94881.59
2022-08-12T16:14:39.343Z,94885.41
2022-08-12T16:17:08.950Z,94874.53
2022-08-12T16:20:05.331Z,94874.97
2022-08-12T16:22:24.484Z,94880.59
2022-08-12T16:24:54.146Z,94876.69
2022-08-12T16:27:23.510Z,94872.03
2022-08-12T16:29:57.705Z,94872.41
2022-08-12T16:32:31.514Z,94877.06
2022-08-12T16:35:00.767Z,94874.38
2022-08-12T16:37:32.389Z,94879.44
2022-08-12T16:40:18.819Z,94868.19
2022-08-12T16:42:54.118Z,94876.69
2022-08-12T16:46:23.285Z,94880.94
2022-08-12T16:48:33.944Z,94880.56
2022-08-12T16:51:09.777Z,94880.47
2022-08-12T16:53:43.905Z,94876.59
2022-08-12T16:56:17.447Z,94882.84
2022-08-12T16:58:44.599Z,94868.22
2022-08-12T17:01:16.617Z,94882.53
2022-08-12T17:03:59.738Z,94891.56
2022-08-12T17:06:28.074Z,94883.81
2022-08-12T17:09:03.073Z,94883.72
2022-08-12T17:11:33.439Z,94879.84
2022-08-12T17:14:01.712Z,94873.50
2022-08-12T17:16:29.939Z,94877.72
2022-08-12T17:18:59.543Z,94873.59
2022-08-12T17:21:41.259Z,94874.78
2022-08-12T17:24:21.521Z,94884.75
2022-08-12T17:26:56.319Z,94877.50
2022-08-12T17:29:24.125Z,94884.44
2022-08-12T17:32:11.152Z,94881.28
2022-08-12T17:34:56.972Z,94872.13
2022-08-12T17:37:23.919Z,94888.63
2022-08-12T17:40:12.500Z,94877.41
2022-08-12T17:42:47.510Z,94888.16
2022-08-12T17:45:19.941Z,94882.50
2022-08-12T17:48:01.113Z,94883.31
2022-08-12T17:50:32.281Z,94898.03
2022-08-12T17:53:02.849Z,94890.06
2022-08-12T17:55:43.200Z,94888.94
2022-08-12T17:58:18.707Z,94887.72
2022-08-12T18:00:50.631Z,94898.75
2022-08-12T18:04:05.355Z,94894.00
2022-08-12T18:06:08.529Z,94900.03
2022-08-12T18:08:43.285Z,94899.25
2022-08-12T18:12:05.527Z,94900.41
2022-08-12T18:14:28.739Z,94905.09
2022-08-12T18:17:00.808Z,94906.69
2022-08-12T18:19:34.097Z,94910.47
2022-08-12T18:22:22.170Z,94895.81
2022-08-12T18:25:04.911Z,94916.81
2022-08-12T18:27:44.210Z,94910.44
2022-08-12T18:30:16.548Z,94913.47
2022-08-12T18:33:04.017Z,94912.41
2022-08-12T18:35:47.453Z,94901.25
2022-08-12T18:38:22.701Z,94902.94
2022-08-12T18:41:20.909Z,94913.16
2022-08-12T18:43:58.571Z,94888.69
2022-08-12T18:46:32.121Z,94915.38
2022-08-12T18:49:16.757Z,94909.59
2022-08-12T18:51:55.073Z,94917.72
2022-08-12T18:54:31.255Z,94918.00
2022-08-12T18:57:01.051Z,94918.84
2022-08-12T19:00:02.193Z,94920.88
2022-08-12T19:02:21.540Z,94931.22
2022-08-12T19:04:53.532Z,94928.38
2022-08-12T19:07:24.880Z,94925.44
2022-08-12T19:09:59.980Z,94913.84
2022-08-12T19:12:57.117Z,94917.00
2022-08-12T19:15:29.882Z,94924.19
2022-08-12T19:18:02.629Z,94929.59
2022-08-12T19:20:31.639Z,94927.22
2022-08-12T19:23:02.263Z,94934.16
2022-08-12T19:26:00.188Z,94932.72
2022-08-12T19:28:30.381Z,94927.22
2022-08-12T19:31:55.628Z,94931.16
2022-08-12T19:37:27.002Z,94911.81
2022-08-12T19:40:09.549Z,94915.38
2022-08-12T19:42:53.597Z,94919.25
2022-08-12T19:45:24.392Z,94928.44
2022-08-12T19:48:17.457Z,94932.50
2022-08-12T19:50:50.522Z,94923.22
2022-08-12T19:53:22.799Z,94927.28
2022-08-12T19:55:55.207Z,94921.19
2022-08-12T19:58:23.892Z,94923.72
2022-08-12T20:00:54.412Z,94917.97
2022-08-12T20:03:40.281Z,94927.28
2022-08-12T20:06:14.188Z,94928.41
2022-08-12T20:08:48.868Z,94920.38
2022-08-12T20:12:13.026Z,94917.28
2022-08-12T20:14:09.802Z,94913.56
2022-08-12T20:19:52.945Z,94916.94
2022-08-12T20:22:24.423Z,94914.00
2022-08-12T20:25:07.319Z,94911.53
2022-08-12T20:28:04.007Z,94887.41
2022-08-12T20:30:37.705Z,94914.75
2022-08-12T20:33:19.116Z,94917.25
2022-08-12T20:36:13.916Z,94908.72
2022-08-12T20:38:39.564Z,94919.75
2022-08-12T20:41:16.307Z,94911.78
2022-08-12T20:43:49.378Z,94912.81
2022-08-12T20:46:17.950Z,94912.41
2022-08-12T20:48:46.984Z,94907.16
2022-08-12T20:51:22.450Z,94906.22
2022-08-12T20:53:58.282Z,94904.88
2022-08-12T20:56:33.404Z,94909.50
2022-08-12T20:59:02.295Z,94911.63
2022-08-12T21:01:45.893Z,94913.41
2022-08-12T21:04:33.357Z,94911.94
2022-08-12T21:07:08.936Z,94913.50
2022-08-12T21:09:41.525Z,94908.06
2022-08-12T21:12:27.584Z,94909.31
2022-08-12T21:15:23.677Z,94915.03
2022-08-12T21:18:10.621Z,94905.06
2022-08-12T21:20:50.837Z,94886.22
2022-08-12T21:23:21.522Z,94913.41
2022-08-12T21:25:51.102Z,94911.88
2022-08-12T21:28:20.620Z,94911.00
2022-08-12T21:31:11.262Z,94909.94
2022-08-12T21:33:58.378Z,94900.84
2022-08-12T21:36:34.479Z,94907.47
2022-08-12T21:39:18.711Z,94894.31
2022-08-12T21:41:52.934Z,94896.50
2022-08-12T21:45:43.965Z,94891.53
2022-08-12T21:47:21.196Z,94900.13
2022-08-12T21:50:03.427Z,94898.00
2022-08-12T21:52:36.208Z,94900.31
2022-08-12T21:55:19.372Z,94897.66
2022-08-12T21:57:53.772Z,94904.75
2022-08-12T22:00:32.863Z,94901.06
2022-08-12T22:04:04.262Z,94889.94
2022-08-12T22:06:31.181Z,94886.66
2022-08-12T22:09:15.976Z,94892.47
2022-08-12T22:11:56.721Z,94883.78
2022-08-12T22:14:28.741Z,94878.06
2022-08-12T22:16:57.222Z,94883.38
2022-08-12T22:19:24.440Z,94878.63
2022-08-12T22:21:54.796Z,94874.97
2022-08-12T22:24:26.432Z,94870.31
2022-08-12T22:26:59.650Z,94853.16
2022-08-12T22:30:01.064Z,94870.72
2022-08-12T22:32:30.097Z,94879.97
2022-08-12T22:35:23.141Z,94865.25
2022-08-12T22:37:53.572Z,94869.78
2022-08-12T22:40:22.725Z,94871.56
2022-08-12T22:43:14.563Z,94866.94
2022-08-12T22:46:01.576Z,94876.44
2022-08-12T22:48:28.602Z,94868.50
2022-08-12T22:50:59.355Z,94852.91
2022-08-12T22:53:35.803Z,94870.09
2022-08-12T22:56:08.182Z,94870.16
2022-08-12T22:58:36.892Z,94867.66
2022-08-12T23:01:11.095Z,94873.59
2022-08-12T23:03:48.116Z,94867.09
2022-08-12T23:06:23.847Z,94871.25
2022-08-12T23:08:52.317Z,94870.00
2022-08-12T23:11:23.800Z,94866.75
2022-08-12T23:13:56.972Z,94865.94
2022-08-12T23:16:31.695Z,94855.84
2022-08-12T23:19:22.948Z,94847.13
2022-08-12T23:22:05.036Z,94849.31
2022-08-12T23:24:56.073Z,94850.44
2022-08-12T23:27:51.861Z,94833.53
2022-08-12T23:30:32.243Z,94843.53
2022-08-12T23:33:13.108Z,94853.28
2022-08-12T23:35:45.643Z,94851.75
2022-08-12T23:38:30.354Z,94844.00
2022-08-12T23:41:01.273Z,94832.78
2022-08-12T23:43:39.095Z,94845.69
2022-08-12T23:46:10.857Z,94828.06
2022-08-12T23:48:38.085Z,94838.06
2022-08-12T23:51:22.318Z,94832.00
2022-08-12T23:53:56.223Z,94830.31
2022-08-12T23:56:26.471Z,94821.94
2022-08-12T23:58:55.205Z,94810.97
